Archival Weather

Yakutsk

Yakutsk, Russia (UEEE)

Report from: Monday, February 6, 2023 10:30 AM JST
Current time: Wednesday, May 29, 2024 5:22 PM JST

Current weather – Weather history – Daily summaries
Weather forecast

Present weatherMist
Temperature-41.0°C (-41.8°F)
Wind chill-50.2°C (-58.4°F)
Dew point-45.0°C (-49.0°F)
Winds 3.9 kts (2 m/s, 4.5 mph) Northwest (310°)
Visibility1.2 mi. (1.9 km)
Altimeter30.24 in.Hg (1024 mB)
Precip. events QF 12:39 PM
Relative humidity65 %
Density altitude-7,933 ft. (-2,418 m)
Remarks No significant changes expected in the next two hours
Flight conditions Instrument Meteorological Conditions
Raw dataUEEE 060130Z 31002MPS 1900 1000NE R23L/1000U BR NSC M41/M45 Q1024 R23L/490150 NOSIG RMK QFE759
An error has occurred. This application may no longer respond until reloaded. Reload 🗙